createdAt,value
2023-04-16T00:00:23.453Z,95289.78
2023-04-16T00:02:50.314Z,95290.16
2023-04-16T00:05:17.117Z,95293.69
2023-04-16T00:07:44.003Z,95303.97
2023-04-16T00:10:10.809Z,95299.53
2023-04-16T00:12:37.423Z,95285.50
2023-04-16T00:15:07.100Z,95285.91
2023-04-16T00:17:33.846Z,95291.22
2023-04-16T00:20:00.576Z,95286.97
2023-04-16T00:22:27.257Z,95289.81
2023-04-16T00:24:53.940Z,95290.19
2023-04-16T00:27:20.577Z,95289.44
2023-04-16T00:29:47.235Z,95296.28
2023-04-16T00:32:13.959Z,95291.41
2023-04-16T00:34:40.582Z,95292.69
2023-04-16T00:37:07.261Z,95295.91
2023-04-16T00:39:33.967Z,95288.19
2023-04-16T00:42:00.688Z,95293.47
2023-04-16T00:44:27.450Z,95293.09
2023-04-16T00:46:55.646Z,95297.16
2023-04-16T00:49:23.099Z,95298.50
2023-04-16T00:51:50.623Z,95299.19
2023-04-16T00:54:18.729Z,95298.59
2023-04-16T00:56:45.421Z,95292.06
2023-04-16T00:59:12.143Z,95294.03
2023-04-16T01:01:38.928Z,95287.06
2023-04-16T01:04:05.874Z,95286.91
2023-04-16T01:06:32.575Z,95302.28
2023-04-16T01:08:59.167Z,95300.00
2023-04-16T01:11:25.797Z,95291.72
2023-04-16T01:13:52.488Z,95287.56
2023-04-16T01:16:19.236Z,95281.09
2023-04-16T01:18:45.903Z,95282.53
2023-04-16T01:21:12.644Z,95278.28
2023-04-16T01:23:39.635Z,95273.53
2023-04-16T01:26:06.301Z,95284.69
2023-04-16T01:28:33.023Z,95293.88
2023-04-16T01:30:59.740Z,95303.16
2023-04-16T01:33:26.415Z,95302.38
2023-04-16T01:35:53.074Z,95298.72
2023-04-16T01:38:19.684Z,95299.50
2023-04-16T01:40:46.300Z,95299.06
2023-04-16T01:43:12.992Z,95297.03
2023-04-16T01:45:39.596Z,95300.22
2023-04-16T01:48:06.525Z,95301.41
2023-04-16T01:50:33.582Z,95314.97
2023-04-16T01:53:00.291Z,95306.78
2023-04-16T01:55:26.965Z,95301.84
2023-04-16T01:57:53.704Z,95305.91
2023-04-16T02:00:20.431Z,95311.25
2023-04-16T02:02:47.523Z,95314.31
2023-04-16T02:05:14.425Z,95315.97
2023-04-16T02:07:41.390Z,95312.91
2023-04-16T02:10:08.578Z,95314.13
2023-04-16T02:12:35.233Z,95316.53
2023-04-16T02:15:03.484Z,95305.19
2023-04-16T02:17:30.508Z,95302.47
2023-04-16T02:19:57.252Z,95306.66
2023-04-16T02:22:23.989Z,95310.41
2023-04-16T02:24:51.093Z,95317.38
2023-04-16T02:27:17.746Z,95310.47
2023-04-16T02:29:44.366Z,95309.84
2023-04-16T02:32:11.194Z,95311.50
2023-04-16T02:34:37.887Z,95314.13
2023-04-16T02:37:04.508Z,95312.31
2023-04-16T02:39:31.091Z,95320.19
2023-04-16T02:41:57.732Z,95316.94
2023-04-16T02:44:24.412Z,95311.66
2023-04-16T02:46:51.049Z,95317.31
2023-04-16T02:49:17.764Z,95316.97
2023-04-16T02:51:44.492Z,95310.66
2023-04-16T02:54:11.628Z,95313.69
2023-04-16T02:56:38.259Z,95306.47
2023-04-16T02:59:04.916Z,95304.34
2023-04-16T03:01:31.571Z,95306.78
2023-04-16T03:03:58.224Z,95316.03
2023-04-16T03:06:24.862Z,95314.81
2023-04-16T03:08:51.674Z,95316.16
2023-04-16T03:11:18.432Z,95308.16
2023-04-16T03:13:45.020Z,95306.44
2023-04-16T03:16:11.786Z,95305.84
2023-04-16T03:18:38.516Z,95308.75
2023-04-16T03:21:05.393Z,95304.31
2023-04-16T03:23:32.144Z,95307.31
2023-04-16T03:25:58.743Z,95306.38
2023-04-16T03:28:25.370Z,95295.50
2023-04-16T03:30:53.189Z,95298.91
2023-04-16T03:33:20.913Z,95299.28
2023-04-16T03:35:47.517Z,95303.56
2023-04-16T03:38:14.151Z,95299.97
2023-04-16T03:40:40.742Z,95300.28
2023-04-16T03:43:07.339Z,95301.31
2023-04-16T03:45:33.980Z,95308.78
2023-04-16T03:48:00.598Z,95312.66
2023-04-16T03:50:27.255Z,95314.72
2023-04-16T03:52:53.880Z,95309.66
2023-04-16T03:55:21.721Z,95306.31
2023-04-16T03:57:48.360Z,95309.66
2023-04-16T04:00:14.993Z,95316.94
2023-04-16T04:02:41.756Z,95312.75
2023-04-16T04:05:08.897Z,95313.28
2023-04-16T04:07:35.560Z,95310.69
2023-04-16T04:10:02.254Z,95307.00
2023-04-16T04:12:29.437Z,95311.75
2023-04-16T04:14:56.027Z,95306.44
2023-04-16T04:17:22.777Z,95309.84
2023-04-16T04:20:00.456Z,95307.97
2023-04-16T04:22:28.205Z,95307.19
2023-04-16T04:24:54.834Z,95313.34
2023-04-16T04:27:21.480Z,95312.84
2023-04-16T04:29:48.107Z,95310.97
2023-04-16T04:32:14.702Z,95312.25
2023-04-16T04:34:41.315Z,95318.84
2023-04-16T04:37:07.954Z,95318.94
2023-04-16T04:39:34.557Z,95311.75
2023-04-16T04:42:01.203Z,95319.22
2023-04-16T04:44:27.863Z,95317.69
2023-04-16T04:46:54.497Z,95321.94
2023-04-16T04:49:21.119Z,95322.97
2023-04-16T04:51:48.228Z,95324.38
2023-04-16T04:54:14.840Z,95325.38
2023-04-16T04:56:41.440Z,95329.38
2023-04-16T04:59:08.344Z,95336.94
2023-04-16T05:01:35.210Z,95334.06
2023-04-16T05:04:02.005Z,95334.44
2023-04-16T05:06:29.625Z,95334.47
2023-04-16T05:08:56.432Z,95328.63
2023-04-16T05:11:23.217Z,95326.97
2023-04-16T05:13:49.868Z,95332.69
2023-04-16T05:16:16.539Z,95327.78
2023-04-16T05:18:43.195Z,95333.53
2023-04-16T05:21:09.900Z,95336.34
2023-04-16T05:23:36.634Z,95333.78
2023-04-16T05:26:03.413Z,95329.81
2023-04-16T05:28:30.716Z,95331.38
2023-04-16T05:30:57.546Z,95338.56
2023-04-16T05:33:25.235Z,95334.09
2023-04-16T05:35:51.851Z,95339.09
2023-04-16T05:38:18.470Z,95333.09
2023-04-16T05:40:45.092Z,95328.69
2023-04-16T05:43:11.704Z,95334.81
2023-04-16T05:45:38.313Z,95332.63
2023-04-16T05:48:05.876Z,95327.47
2023-04-16T05:50:32.513Z,95332.78
2023-04-16T05:52:59.105Z,95336.63
2023-04-16T05:55:25.701Z,95337.03
2023-04-16T05:57:52.291Z,95335.38
2023-04-16T06:00:19.000Z,95335.59
2023-04-16T06:02:45.683Z,95334.75
2023-04-16T06:05:12.464Z,95341.81
2023-04-16T06:07:39.124Z,95339.38
2023-04-16T06:10:06.417Z,95338.22
2023-04-16T06:12:33.046Z,95340.03
2023-04-16T06:15:00.297Z,95338.94
2023-04-16T06:17:27.090Z,95345.63
2023-04-16T06:19:53.827Z,95345.03
2023-04-16T06:22:20.567Z,95339.19
2023-04-16T06:24:47.244Z,95332.09
2023-04-16T06:27:13.838Z,95337.03
2023-04-16T06:29:41.829Z,95338.28
2023-04-16T06:32:09.121Z,95332.63
2023-04-16T06:34:36.162Z,95340.84
2023-04-16T06:37:02.791Z,95331.16
2023-04-16T06:39:29.830Z,95339.00
2023-04-16T06:41:56.618Z,95334.50
2023-04-16T06:44:23.279Z,95340.25
2023-04-16T06:46:50.843Z,95338.78
2023-04-16T06:49:17.551Z,95338.25
2023-04-16T06:51:44.352Z,95336.94
2023-04-16T06:54:11.012Z,95341.84
2023-04-16T06:56:37.600Z,95337.47
2023-04-16T06:59:04.733Z,95337.75
2023-04-16T07:01:31.470Z,95330.84
2023-04-16T07:03:58.586Z,95339.97
2023-04-16T07:06:25.586Z,95339.41
2023-04-16T07:08:52.247Z,95338.81
2023-04-16T07:11:19.205Z,95341.06
2023-04-16T07:13:45.863Z,95339.69
2023-04-16T07:16:12.490Z,95344.69
2023-04-16T07:18:39.132Z,95352.31
2023-04-16T07:21:05.756Z,95357.47
2023-04-16T07:23:32.404Z,95352.47
2023-04-16T07:25:59.072Z,95363.97
2023-04-16T07:28:25.673Z,95369.50
2023-04-16T07:30:52.300Z,95369.34
2023-04-16T07:33:19.014Z,95363.06
2023-04-16T07:35:45.696Z,95365.63
2023-04-16T07:38:12.360Z,95369.31
2023-04-16T07:40:39.127Z,95370.38
2023-04-16T07:43:05.745Z,95380.31
2023-04-16T07:45:32.348Z,95376.41
2023-04-16T07:47:58.965Z,95376.94
2023-04-16T07:50:25.615Z,95367.28
2023-04-16T07:52:52.250Z,95379.41
2023-04-16T07:55:20.320Z,95382.44
2023-04-16T07:57:46.958Z,95383.09
2023-04-16T08:00:14.034Z,95386.19
2023-04-16T08:02:41.725Z,95384.47
2023-04-16T08:05:08.532Z,95385.19
2023-04-16T08:07:35.196Z,95388.09
2023-04-16T08:10:02.122Z,95383.34
2023-04-16T08:12:29.364Z,95384.44
2023-04-16T08:14:56.000Z,95391.28
2023-04-16T08:17:22.837Z,95395.81
2023-04-16T08:19:49.733Z,95396.19
2023-04-16T08:22:16.946Z,95397.22
2023-04-16T08:24:43.657Z,95395.31
2023-04-16T08:27:18.533Z,95396.78
2023-04-16T08:29:48.034Z,95394.63
2023-04-16T08:32:14.690Z,95398.72
2023-04-16T08:34:42.260Z,95398.06
2023-04-16T08:37:09.691Z,95399.13
2023-04-16T08:39:36.284Z,95394.84
2023-04-16T08:42:05.921Z,95394.63
2023-04-16T08:44:35.103Z,95402.44
2023-04-16T08:47:01.812Z,95400.44
2023-04-16T08:49:28.523Z,95406.81
2023-04-16T08:51:57.244Z,95403.78
2023-04-16T08:54:30.166Z,95408.56
2023-04-16T08:56:59.142Z,95406.56
2023-04-16T08:59:26.274Z,95411.59
2023-04-16T09:01:57.677Z,95422.00
2023-04-16T09:04:27.587Z,95414.66
2023-04-16T09:06:56.567Z,95412.91
2023-04-16T09:09:23.616Z,95419.06
2023-04-16T09:11:52.411Z,95422.59
2023-04-16T09:14:19.772Z,95420.03
2023-04-16T09:16:47.535Z,95428.91
2023-04-16T09:19:15.457Z,95436.38
2023-04-16T09:21:45.594Z,95423.44
2023-04-16T09:24:12.394Z,95431.59
2023-04-16T09:26:39.067Z,95435.63
2023-04-16T09:29:05.708Z,95431.38
2023-04-16T09:31:33.571Z,95432.97
2023-04-16T09:34:06.645Z,95431.59
2023-04-16T09:36:34.654Z,95433.22
2023-04-16T09:39:02.487Z,95432.97
2023-04-16T09:41:31.423Z,95434.94
2023-04-16T09:44:02.532Z,95430.69
2023-04-16T09:46:40.602Z,95441.19
2023-04-16T09:49:16.071Z,95436.16
2023-04-16T09:51:45.941Z,95432.84
2023-04-16T09:54:12.668Z,95435.97
2023-04-16T09:56:44.691Z,95432.53
2023-04-16T09:59:24.347Z,95432.63
2023-04-16T10:01:51.264Z,95439.06
2023-04-16T10:04:18.069Z,95441.50
2023-04-16T10:06:44.720Z,95432.53
2023-04-16T10:09:11.550Z,95445.41
2023-04-16T10:11:39.723Z,95452.59
2023-04-16T10:14:08.404Z,95448.09
2023-04-16T10:16:38.863Z,95450.53
2023-04-16T10:19:05.618Z,95446.28
2023-04-16T10:21:32.676Z,95450.44
2023-04-16T10:24:08.000Z,95459.19
2023-04-16T10:26:35.974Z,95445.03
2023-04-16T10:29:09.804Z,95451.78
2023-04-16T10:31:39.620Z,95448.81
2023-04-16T10:34:10.511Z,95443.69
2023-04-16T10:36:38.032Z,95446.59
2023-04-16T10:39:11.036Z,95449.16
2023-04-16T10:41:38.548Z,95454.78
2023-04-16T10:44:10.385Z,95455.88
2023-04-16T10:46:39.318Z,95451.00
2023-04-16T10:49:23.043Z,95454.78
2023-04-16T10:51:55.398Z,95456.22
2023-04-16T10:54:30.379Z,95457.34
2023-04-16T10:57:00.793Z,95466.25
2023-04-16T10:59:34.872Z,95458.66
2023-04-16T11:02:08.047Z,95456.41
2023-04-16T11:04:37.230Z,95460.13
2023-04-16T11:07:12.992Z,95458.56
2023-04-16T11:10:07.377Z,95451.75
2023-04-16T11:12:46.947Z,95454.28
2023-04-16T11:15:15.453Z,95450.66
2023-04-16T11:17:50.316Z,95451.53
2023-04-16T11:20:25.629Z,95453.44
2023-04-16T11:22:54.619Z,95456.91
2023-04-16T11:25:26.244Z,95453.47
2023-04-16T11:27:53.774Z,95454.84
2023-04-16T11:30:29.586Z,95455.78
2023-04-16T11:32:56.453Z,95454.25
2023-04-16T11:35:23.214Z,95450.22
2023-04-16T11:37:49.852Z,95451.16
2023-04-16T11:40:16.479Z,95457.50
2023-04-16T11:42:44.329Z,95451.09
2023-04-16T11:45:12.414Z,95454.09
2023-04-16T11:47:50.587Z,95451.16
2023-04-16T11:50:23.998Z,95449.00
2023-04-16T11:52:53.043Z,95449.34
2023-04-16T11:55:20.044Z,95448.97
2023-04-16T11:57:47.234Z,95452.13
2023-04-16T12:00:14.569Z,95444.72
2023-04-16T12:02:46.369Z,95445.94
2023-04-16T12:05:33.414Z,95454.19
2023-04-16T12:08:03.782Z,95450.84
2023-04-16T12:10:32.361Z,95447.28
2023-04-16T12:13:15.267Z,95449.03
2023-04-16T12:15:59.874Z,95450.38
2023-04-16T12:18:26.709Z,95449.44
2023-04-16T12:20:53.591Z,95450.53
2023-04-16T12:23:28.613Z,95448.34
2023-04-16T12:25:56.559Z,95448.44
2023-04-16T12:28:34.638Z,95441.72
2023-04-16T12:31:02.718Z,95456.38
2023-04-16T12:33:30.063Z,95450.38
2023-04-16T12:35:56.937Z,95455.06
2023-04-16T12:38:24.721Z,95453.19
2023-04-16T12:40:51.911Z,95459.47
2023-04-16T12:43:18.658Z,95450.16
2023-04-16T12:45:45.476Z,95446.06
2023-04-16T12:48:12.167Z,95447.00
2023-04-16T12:50:38.809Z,95443.69
2023-04-16T12:53:05.465Z,95447.03
2023-04-16T12:55:32.201Z,95454.69
2023-04-16T12:57:58.891Z,95448.38
2023-04-16T13:00:25.585Z,95448.41
2023-04-16T13:02:52.490Z,95444.84
2023-04-16T13:05:19.367Z,95435.03
2023-04-16T13:07:46.310Z,95440.03
2023-04-16T13:10:13.080Z,95439.06
2023-04-16T13:12:39.839Z,95435.53
2023-04-16T13:15:06.919Z,95428.09
2023-04-16T13:17:33.694Z,95434.19
2023-04-16T13:20:00.344Z,95435.31
2023-04-16T13:22:27.251Z,95431.53
2023-04-16T13:24:53.873Z,95435.19
2023-04-16T13:27:20.477Z,95435.72
2023-04-16T13:29:47.130Z,95432.81
2023-04-16T13:32:13.880Z,95435.94
2023-04-16T13:34:40.916Z,95432.03
2023-04-16T13:37:07.588Z,95428.47
2023-04-16T13:39:34.343Z,95430.28
2023-04-16T13:42:01.137Z,95434.09
2023-04-16T13:44:27.752Z,95426.38
2023-04-16T13:46:54.533Z,95429.59
2023-04-16T13:49:21.242Z,95431.78
2023-04-16T13:51:47.851Z,95431.59
2023-04-16T13:54:14.496Z,95423.78
2023-04-16T13:56:41.292Z,95426.13
2023-04-16T13:59:08.241Z,95429.50
2023-04-16T14:01:35.083Z,95432.09
2023-04-16T14:04:01.937Z,95431.72
2023-04-16T14:06:28.600Z,95418.88
2023-04-16T14:08:55.212Z,95425.13
2023-04-16T14:11:21.848Z,95425.38
2023-04-16T14:13:48.862Z,95431.88
2023-04-16T14:16:15.465Z,95429.28
2023-04-16T14:18:42.097Z,95432.06
2023-04-16T14:21:09.149Z,95430.28
2023-04-16T14:23:35.783Z,95432.75
2023-04-16T14:26:02.593Z,95429.31
2023-04-16T14:28:29.184Z,95439.13
2023-04-16T14:30:55.805Z,95440.19
2023-04-16T14:33:22.489Z,95436.00
2023-04-16T14:35:49.162Z,95433.97
2023-04-16T14:38:15.889Z,95441.84
2023-04-16T14:40:42.548Z,95437.16
2023-04-16T14:43:09.186Z,95441.75
2023-04-16T14:45:35.820Z,95431.97
2023-04-16T14:48:02.541Z,95433.16
2023-04-16T14:50:29.169Z,95434.25
2023-04-16T14:52:55.889Z,95432.72
2023-04-16T14:55:22.747Z,95431.47
2023-04-16T14:57:49.361Z,95427.09
2023-04-16T15:00:16.329Z,95430.34
2023-04-16T15:02:43.194Z,95429.13
2023-04-16T15:05:10.152Z,95423.41
2023-04-16T15:07:36.947Z,95420.72
2023-04-16T15:10:03.792Z,95422.81
2023-04-16T15:12:30.386Z,95431.78
2023-04-16T15:14:56.989Z,95432.38
2023-04-16T15:17:23.811Z,95428.78
2023-04-16T15:19:50.615Z,95427.03
2023-04-16T15:22:17.254Z,95426.78
2023-04-16T15:24:44.115Z,95429.28
2023-04-16T15:27:11.889Z,95428.63
2023-04-16T15:29:38.658Z,95432.66
2023-04-16T15:32:05.392Z,95439.22
2023-04-16T15:34:32.176Z,95431.53
2023-04-16T15:36:59.112Z,95436.34
2023-04-16T15:39:25.726Z,95438.19
2023-04-16T15:44:22.116Z,95432.66
2023-04-16T15:46:48.968Z,95438.31
2023-04-16T15:49:15.669Z,95434.91
2023-04-16T15:51:42.324Z,95432.31
2023-04-16T15:54:09.072Z,95433.41
2023-04-16T15:56:35.765Z,95431.47
2023-04-16T15:59:02.993Z,95428.16
2023-04-16T16:01:29.696Z,95430.31
2023-04-16T16:03:56.572Z,95438.56
2023-04-16T16:06:23.471Z,95442.22
2023-04-16T16:08:50.125Z,95442.25
2023-04-16T16:11:16.740Z,95441.31
2023-04-16T16:13:43.358Z,95449.91
2023-04-16T16:16:11.058Z,95450.53
2023-04-16T16:18:38.004Z,95450.63
2023-04-16T16:21:04.700Z,95438.28
2023-04-16T16:23:31.290Z,95447.91
2023-04-16T16:25:57.946Z,95445.50
2023-04-16T16:28:24.618Z,95450.09
2023-04-16T16:30:51.226Z,95444.25
2023-04-16T16:33:17.965Z,95456.50
2023-04-16T16:35:44.616Z,95442.72
2023-04-16T16:38:11.383Z,95452.63
2023-04-16T16:40:38.878Z,95457.13
2023-04-16T16:43:07.921Z,95450.66
2023-04-16T16:45:34.723Z,95456.34
2023-04-16T16:48:01.494Z,95453.22
2023-04-16T16:50:32.738Z,95451.19
2023-04-16T16:52:59.929Z,95464.03
2023-04-16T16:55:26.825Z,95463.03
2023-04-16T16:57:53.782Z,95460.72
2023-04-16T17:00:20.765Z,95458.38
2023-04-16T17:02:47.930Z,95454.44
2023-04-16T17:05:14.704Z,95455.56
2023-04-16T17:07:41.487Z,95458.94
2023-04-16T17:10:09.013Z,95462.72
2023-04-16T17:12:35.733Z,95462.75
2023-04-16T17:15:02.536Z,95466.50
2023-04-16T17:17:29.313Z,95470.13
2023-04-16T17:19:55.981Z,95474.94
2023-04-16T17:22:22.596Z,95472.53
2023-04-16T17:24:49.193Z,95469.50
2023-04-16T17:27:15.832Z,95475.97
2023-04-16T17:29:42.443Z,95470.28
2023-04-16T17:32:09.112Z,95472.09
2023-04-16T17:34:35.751Z,95466.06
2023-04-16T17:37:02.405Z,95459.84
2023-04-16T17:39:29.080Z,95462.34
2023-04-16T17:41:55.765Z,95471.06
2023-04-16T17:44:22.380Z,95465.66
2023-04-16T17:46:48.996Z,95464.56
2023-04-16T17:49:15.616Z,95467.69
2023-04-16T17:51:42.233Z,95468.38
2023-04-16T17:54:08.985Z,95471.34
2023-04-16T17:56:35.780Z,95469.06
2023-04-16T17:59:02.379Z,95466.84
2023-04-16T18:01:29.072Z,95472.53
2023-04-16T18:03:56.055Z,95472.34
2023-04-16T18:06:22.833Z,95469.31
2023-04-16T18:08:49.472Z,95472.13
2023-04-16T18:11:16.077Z,95471.19
2023-04-16T18:13:42.656Z,95473.53
2023-04-16T18:16:17.255Z,95473.38
2023-04-16T18:18:44.822Z,95476.38
2023-04-16T18:21:11.688Z,95470.34
2023-04-16T18:23:38.399Z,95468.63
2023-04-16T18:26:07.464Z,95472.09
2023-04-16T18:28:34.990Z,95464.19
2023-04-16T18:31:01.649Z,95475.44
2023-04-16T18:33:49.961Z,95461.41
2023-04-16T18:36:15.039Z,95471.16
2023-04-16T18:38:53.007Z,95470.59
2023-04-16T18:41:26.561Z,95477.72
2023-04-16T18:43:53.177Z,95472.53
2023-04-16T18:46:19.856Z,95473.81
2023-04-16T18:48:46.550Z,95475.41
2023-04-16T18:51:14.905Z,95481.03
2023-04-16T18:53:42.868Z,95486.13
2023-04-16T18:56:09.613Z,95488.72
2023-04-16T18:58:36.262Z,95493.38
2023-04-16T19:01:02.945Z,95491.16
2023-04-16T19:03:29.656Z,95499.94
2023-04-16T19:05:56.386Z,95490.06
2023-04-16T19:08:22.991Z,95500.47
2023-04-16T19:10:50.264Z,95508.03
2023-04-16T19:13:16.958Z,95498.56
2023-04-16T19:15:43.563Z,95505.16
2023-04-16T19:18:10.172Z,95493.41
2023-04-16T19:20:37.646Z,95506.75
2023-04-16T19:23:05.044Z,95501.84
2023-04-16T19:25:32.357Z,95498.88
2023-04-16T19:27:59.279Z,95503.53
2023-04-16T19:30:25.954Z,95494.56
2023-04-16T19:32:54.668Z,95501.16
2023-04-16T19:35:22.230Z,95494.84
2023-04-16T19:37:50.689Z,95501.44
2023-04-16T19:40:17.380Z,95502.88
2023-04-16T19:42:43.998Z,95503.88
2023-04-16T19:45:10.691Z,95497.88
2023-04-16T19:47:37.570Z,95497.94
2023-04-16T19:50:04.415Z,95500.72
2023-04-16T19:52:32.058Z,95506.31
2023-04-16T19:54:58.672Z,95505.09
2023-04-16T19:57:25.296Z,95498.59
2023-04-16T19:59:53.487Z,95508.66
2023-04-16T20:02:21.331Z,95503.97
2023-04-16T20:04:47.995Z,95501.13
2023-04-16T20:07:14.614Z,95504.56
2023-04-16T20:09:41.221Z,95496.47
2023-04-16T20:12:07.879Z,95492.59
2023-04-16T20:14:34.500Z,95496.84
2023-04-16T20:17:01.176Z,95489.44
2023-04-16T20:19:27.961Z,95492.94
2023-04-16T20:21:54.602Z,95489.22
2023-04-16T20:24:21.210Z,95490.03
2023-04-16T20:26:47.805Z,95477.41
2023-04-16T20:29:14.396Z,95481.44
2023-04-16T20:31:41.102Z,95477.63
2023-04-16T20:34:07.725Z,95478.66
2023-04-16T20:36:34.345Z,95477.53
2023-04-16T20:39:00.940Z,95478.00
2023-04-16T20:41:28.419Z,95470.34
2023-04-16T20:43:55.227Z,95477.03
2023-04-16T20:46:22.678Z,95480.41
2023-04-16T20:48:50.930Z,95481.59
2023-04-16T20:51:17.624Z,95469.81
2023-04-16T20:53:44.326Z,95473.41
2023-04-16T20:56:10.945Z,95468.22
2023-04-16T20:58:37.559Z,95462.44
2023-04-16T21:01:04.235Z,95465.59
2023-04-16T21:03:30.996Z,95458.84
2023-04-16T21:05:57.676Z,95453.44
2023-04-16T21:08:24.342Z,95449.03
2023-04-16T21:10:50.992Z,95449.41
2023-04-16T21:13:17.657Z,95447.22
2023-04-16T21:15:45.114Z,95438.91
2023-04-16T21:18:12.562Z,95448.06
2023-04-16T21:20:39.876Z,95445.81
2023-04-16T21:23:06.713Z,95452.78
2023-04-16T21:25:33.353Z,95450.69
2023-04-16T21:27:59.994Z,95442.38
2023-04-16T21:30:26.636Z,95432.09
2023-04-16T21:32:53.404Z,95437.41
2023-04-16T21:35:20.011Z,95433.69
2023-04-16T21:37:46.629Z,95426.97
2023-04-16T21:40:13.554Z,95432.84
2023-04-16T21:42:40.187Z,95437.19
2023-04-16T21:45:10.254Z,95428.13
2023-04-16T21:47:37.441Z,95425.88
2023-04-16T21:50:04.630Z,95434.22
2023-04-16T21:52:31.351Z,95435.19
2023-04-16T21:54:58.841Z,95437.78
2023-04-16T21:57:25.553Z,95433.59
2023-04-16T21:59:52.206Z,95430.41
2023-04-16T22:02:18.931Z,95436.59
2023-04-16T22:04:45.664Z,95429.94
2023-04-16T22:07:12.265Z,95423.72
2023-04-16T22:09:38.957Z,95432.59
2023-04-16T22:12:05.895Z,95428.44
2023-04-16T22:14:35.096Z,95426.09
2023-04-16T22:17:02.227Z,95426.09
2023-04-16T22:19:29.200Z,95413.97
2023-04-16T22:21:58.850Z,95407.84
2023-04-16T22:24:25.553Z,95403.69
2023-04-16T22:26:52.489Z,95397.16
2023-04-16T22:29:19.213Z,95398.03
2023-04-16T22:31:46.238Z,95390.22
2023-04-16T22:34:12.900Z,95389.47
2023-04-16T22:36:39.536Z,95388.09
2023-04-16T22:39:06.151Z,95393.53
2023-04-16T22:41:32.825Z,95378.09
2023-04-16T22:43:59.426Z,95383.63
2023-04-16T22:46:26.285Z,95381.28
2023-04-16T22:48:53.076Z,95381.41
2023-04-16T22:51:19.675Z,95384.19
2023-04-16T22:53:46.325Z,95373.41
2023-04-16T22:56:12.997Z,95373.44
2023-04-16T22:58:42.677Z,95374.00
2023-04-16T23:01:09.355Z,95359.50
2023-04-16T23:03:36.199Z,95367.13
2023-04-16T23:06:02.922Z,95363.84
2023-04-16T23:08:29.759Z,95369.97
2023-04-16T23:10:59.057Z,95364.72
2023-04-16T23:13:25.792Z,95352.44
2023-04-16T23:15:52.473Z,95354.91
2023-04-16T23:18:19.202Z,95343.09
2023-04-16T23:20:45.814Z,95347.00
2023-04-16T23:23:12.425Z,95344.81
2023-04-16T23:25:41.112Z,95340.50
2023-04-16T23:28:07.818Z,95334.44
2023-04-16T23:30:34.439Z,95339.78
2023-04-16T23:33:01.147Z,95352.88
2023-04-16T23:35:27.760Z,95345.19
2023-04-16T23:37:54.712Z,95340.66
2023-04-16T23:40:21.552Z,95346.50
2023-04-16T23:42:48.177Z,95342.09
2023-04-16T23:45:14.907Z,95346.28
2023-04-16T23:47:41.600Z,95345.59
2023-04-16T23:50:09.173Z,95353.38
2023-04-16T23:52:35.817Z,95350.84
2023-04-16T23:55:02.457Z,95342.38
2023-04-16T23:57:29.087Z,95338.25
2023-04-16T23:59:55.673Z,95331.84
